sensor_id;sensor_type;location;lat;lon;timestamp;P1;durP1;ratioP1;P2;durP2;ratioP2
83632;SDS011;73595;53.084;6.696;2024-02-26T00:01:21;21.02;;;12.60;;
83632;SDS011;73595;53.084;6.696;2024-02-26T00:03:46;21.27;;;11.82;;
83632;SDS011;73595;53.084;6.696;2024-02-26T00:06:15;21.48;;;12.45;;
83632;SDS011;73595;53.084;6.696;2024-02-26T00:08:43;23.67;;;13.10;;
83632;SDS011;73595;53.084;6.696;2024-02-26T00:11:10;21.25;;;12.43;;
83632;SDS011;73595;53.084;6.696;2024-02-26T00:13:36;17.60;;;11.27;;
83632;SDS011;73595;53.084;6.696;2024-02-26T00:16:02;18.48;;;11.57;;
83632;SDS011;73595;53.084;6.696;2024-02-26T00:18:33;18.27;;;11.43;;
83632;SDS011;73595;53.084;6.696;2024-02-26T00:20:58;21.75;;;11.68;;
83632;SDS011;73595;53.084;6.696;2024-02-26T00:23:27;21.20;;;12.00;;
83632;SDS011;73595;53.084;6.696;2024-02-26T00:25:56;22.50;;;12.88;;
83632;SDS011;73595;53.084;6.696;2024-02-26T00:28:31;28.20;;;15.05;;
83632;SDS011;73595;53.084;6.696;2024-02-26T00:30:58;22.52;;;13.20;;
83632;SDS011;73595;53.084;6.696;2024-02-26T00:33:25;22.63;;;13.32;;
83632;SDS011;73595;53.084;6.696;2024-02-26T00:35:55;25.17;;;13.77;;
83632;SDS011;73595;53.084;6.696;2024-02-26T00:38:23;28.02;;;15.95;;
83632;SDS011;73595;53.084;6.696;2024-02-26T00:40:49;32.05;;;17.65;;
83632;SDS011;73595;53.084;6.696;2024-02-26T00:43:16;30.20;;;16.92;;
83632;SDS011;73595;53.084;6.696;2024-02-26T00:45:47;31.80;;;17.15;;
83632;SDS011;73595;53.084;6.696;2024-02-26T00:48:22;30.33;;;16.92;;
83632;SDS011;73595;53.084;6.696;2024-02-26T00:50:50;32.45;;;17.20;;
83632;SDS011;73595;53.084;6.696;2024-02-26T00:53:17;30.50;;;17.63;;
83632;SDS011;73595;53.084;6.696;2024-02-26T00:55:47;37.97;;;20.17;;
83632;SDS011;73595;53.084;6.696;2024-02-26T00:58:17;33.22;;;18.65;;
83632;SDS011;73595;53.084;6.696;2024-02-26T01:00:44;35.25;;;19.08;;
83632;SDS011;73595;53.084;6.696;2024-02-26T01:03:09;34.05;;;19.45;;
83632;SDS011;73595;53.084;6.696;2024-02-26T01:05:43;35.08;;;19.70;;
83632;SDS011;73595;53.084;6.696;2024-02-26T01:08:09;38.15;;;20.70;;
83632;SDS011;73595;53.084;6.696;2024-02-26T01:10:34;35.50;;;20.35;;
83632;SDS011;73595;53.084;6.696;2024-02-26T01:13:00;33.97;;;19.58;;
83632;SDS011;73595;53.084;6.696;2024-02-26T01:15:26;35.03;;;20.05;;
83632;SDS011;73595;53.084;6.696;2024-02-26T01:17:55;38.85;;;21.25;;
83632;SDS011;73595;53.084;6.696;2024-02-26T01:20:22;32.72;;;19.20;;
83632;SDS011;73595;53.084;6.696;2024-02-26T01:22:49;34.58;;;19.60;;
83632;SDS011;73595;53.084;6.696;2024-02-26T01:25:15;29.70;;;18.30;;
83632;SDS011;73595;53.084;6.696;2024-02-26T01:27:43;29.65;;;18.77;;
83632;SDS011;73595;53.084;6.696;2024-02-26T01:30:11;36.90;;;20.65;;
83632;SDS011;73595;53.084;6.696;2024-02-26T01:32:39;40.28;;;21.40;;
83632;SDS011;73595;53.084;6.696;2024-02-26T01:35:06;35.45;;;20.48;;
83632;SDS011;73595;53.084;6.696;2024-02-26T01:37:37;36.72;;;19.10;;
83632;SDS011;73595;53.084;6.696;2024-02-26T01:40:03;36.10;;;19.60;;
83632;SDS011;73595;53.084;6.696;2024-02-26T01:42:32;34.38;;;20.17;;
83632;SDS011;73595;53.084;6.696;2024-02-26T01:45:03;37.60;;;20.40;;
83632;SDS011;73595;53.084;6.696;2024-02-26T01:47:29;41.67;;;21.30;;
83632;SDS011;73595;53.084;6.696;2024-02-26T01:49:57;35.45;;;19.85;;
83632;SDS011;73595;53.084;6.696;2024-02-26T01:52:25;33.72;;;19.27;;
83632;SDS011;73595;53.084;6.696;2024-02-26T01:54:51;32.83;;;19.95;;
83632;SDS011;73595;53.084;6.696;2024-02-26T01:57:17;30.00;;;18.05;;
83632;SDS011;73595;53.084;6.696;2024-02-26T01:59:50;30.45;;;19.63;;
83632;SDS011;73595;53.084;6.696;2024-02-26T02:02:21;26.15;;;16.38;;
83632;SDS011;73595;53.084;6.696;2024-02-26T02:04:50;28.38;;;18.38;;
83632;SDS011;73595;53.084;6.696;2024-02-26T02:07:16;25.52;;;16.85;;
83632;SDS011;73595;53.084;6.696;2024-02-26T02:09:48;27.80;;;16.50;;
83632;SDS011;73595;53.084;6.696;2024-02-26T02:12:15;25.30;;;16.05;;
83632;SDS011;73595;53.084;6.696;2024-02-26T02:14:49;28.67;;;17.52;;
83632;SDS011;73595;53.084;6.696;2024-02-26T02:17:16;29.67;;;17.58;;
83632;SDS011;73595;53.084;6.696;2024-02-26T02:19:42;25.60;;;17.10;;
83632;SDS011;73595;53.084;6.696;2024-02-26T02:22:10;24.60;;;16.15;;
83632;SDS011;73595;53.084;6.696;2024-02-26T02:24:41;26.80;;;17.02;;
83632;SDS011;73595;53.084;6.696;2024-02-26T02:27:07;25.80;;;17.17;;
83632;SDS011;73595;53.084;6.696;2024-02-26T02:29:36;26.75;;;16.80;;
83632;SDS011;73595;53.084;6.696;2024-02-26T02:32:03;22.25;;;15.23;;
83632;SDS011;73595;53.084;6.696;2024-02-26T02:34:31;23.55;;;15.77;;
83632;SDS011;73595;53.084;6.696;2024-02-26T02:36:59;23.45;;;15.27;;
83632;SDS011;73595;53.084;6.696;2024-02-26T02:39:27;22.95;;;15.35;;
83632;SDS011;73595;53.084;6.696;2024-02-26T02:41:55;22.08;;;14.55;;
83632;SDS011;73595;53.084;6.696;2024-02-26T02:44:23;19.98;;;13.90;;
83632;SDS011;73595;53.084;6.696;2024-02-26T02:47:12;24.48;;;15.18;;
83632;SDS011;73595;53.084;6.696;2024-02-26T02:49:44;20.90;;;14.15;;
83632;SDS011;73595;53.084;6.696;2024-02-26T02:52:10;18.58;;;13.43;;
83632;SDS011;73595;53.084;6.696;2024-02-26T02:54:36;18.25;;;12.52;;
83632;SDS011;73595;53.084;6.696;2024-02-26T02:57:05;19.75;;;13.18;;
83632;SDS011;73595;53.084;6.696;2024-02-26T02:59:32;18.67;;;13.10;;
83632;SDS011;73595;53.084;6.696;2024-02-26T03:02:01;18.10;;;12.80;;
83632;SDS011;73595;53.084;6.696;2024-02-26T03:04:31;18.75;;;12.90;;
83632;SDS011;73595;53.084;6.696;2024-02-26T03:06:59;16.67;;;11.95;;
83632;SDS011;73595;53.084;6.696;2024-02-26T03:09:25;19.60;;;12.82;;
83632;SDS011;73595;53.084;6.696;2024-02-26T03:11:52;17.95;;;12.15;;
83632;SDS011;73595;53.084;6.696;2024-02-26T03:14:18;16.73;;;11.20;;
83632;SDS011;73595;53.084;6.696;2024-02-26T03:16:53;17.70;;;11.02;;
83632;SDS011;73595;53.084;6.696;2024-02-26T03:19:21;16.55;;;11.30;;
83632;SDS011;73595;53.084;6.696;2024-02-26T03:21:49;12.75;;;10.52;;
83632;SDS011;73595;53.084;6.696;2024-02-26T03:24:15;14.65;;;10.65;;
83632;SDS011;73595;53.084;6.696;2024-02-26T03:26:50;14.82;;;10.18;;
83632;SDS011;73595;53.084;6.696;2024-02-26T03:29:20;12.93;;;9.68;;
83632;SDS011;73595;53.084;6.696;2024-02-26T03:31:52;12.63;;;9.70;;
83632;SDS011;73595;53.084;6.696;2024-02-26T03:34:22;13.68;;;9.55;;
83632;SDS011;73595;53.084;6.696;2024-02-26T03:36:51;13.88;;;9.75;;
83632;SDS011;73595;53.084;6.696;2024-02-26T03:39:30;17.92;;;10.55;;
83632;SDS011;73595;53.084;6.696;2024-02-26T03:41:58;12.98;;;9.45;;
83632;SDS011;73595;53.084;6.696;2024-02-26T03:44:27;12.45;;;9.68;;
83632;SDS011;73595;53.084;6.696;2024-02-26T03:46:54;15.85;;;9.00;;
83632;SDS011;73595;53.084;6.696;2024-02-26T03:49:22;13.40;;;9.43;;
83632;SDS011;73595;53.084;6.696;2024-02-26T03:52:03;12.33;;;8.50;;
83632;SDS011;73595;53.084;6.696;2024-02-26T03:54:30;12.65;;;9.00;;
83632;SDS011;73595;53.084;6.696;2024-02-26T03:56:57;10.40;;;8.23;;
83632;SDS011;73595;53.084;6.696;2024-02-26T03:59:25;13.18;;;8.63;;
83632;SDS011;73595;53.084;6.696;2024-02-26T04:01:51;14.80;;;9.48;;
83632;SDS011;73595;53.084;6.696;2024-02-26T04:04:18;11.95;;;8.00;;
83632;SDS011;73595;53.084;6.696;2024-02-26T04:06:45;9.95;;;7.70;;
83632;SDS011;73595;53.084;6.696;2024-02-26T04:09:11;11.88;;;7.20;;
83632;SDS011;73595;53.084;6.696;2024-02-26T04:11:40;10.10;;;7.10;;
83632;SDS011;73595;53.084;6.696;2024-02-26T04:14:08;17.35;;;7.63;;
83632;SDS011;73595;53.084;6.696;2024-02-26T04:16:38;11.20;;;7.82;;
83632;SDS011;73595;53.084;6.696;2024-02-26T04:19:05;9.27;;;6.88;;
83632;SDS011;73595;53.084;6.696;2024-02-26T04:21:31;9.93;;;6.75;;
83632;SDS011;73595;53.084;6.696;2024-02-26T04:23:57;10.55;;;6.93;;
83632;SDS011;73595;53.084;6.696;2024-02-26T04:26:27;9.13;;;6.28;;
83632;SDS011;73595;53.084;6.696;2024-02-26T04:28:53;10.57;;;6.70;;
83632;SDS011;73595;53.084;6.696;2024-02-26T04:31:21;11.00;;;6.60;;
83632;SDS011;73595;53.084;6.696;2024-02-26T04:33:47;9.77;;;6.10;;
83632;SDS011;73595;53.084;6.696;2024-02-26T04:36:16;8.13;;;5.78;;
83632;SDS011;73595;53.084;6.696;2024-02-26T04:38:56;10.05;;;6.18;;
83632;SDS011;73595;53.084;6.696;2024-02-26T04:41:23;6.65;;;5.47;;
83632;SDS011;73595;53.084;6.696;2024-02-26T04:43:51;7.70;;;5.80;;
83632;SDS011;73595;53.084;6.696;2024-02-26T04:46:22;9.50;;;6.55;;
83632;SDS011;73595;53.084;6.696;2024-02-26T04:48:49;12.80;;;6.57;;
83632;SDS011;73595;53.084;6.696;2024-02-26T04:51:40;8.48;;;6.00;;
83632;SDS011;73595;53.084;6.696;2024-02-26T04:54:11;11.65;;;6.57;;
83632;SDS011;73595;53.084;6.696;2024-02-26T04:56:39;11.02;;;6.45;;
83632;SDS011;73595;53.084;6.696;2024-02-26T04:59:25;10.60;;;6.20;;
83632;SDS011;73595;53.084;6.696;2024-02-26T05:01:54;7.38;;;5.80;;
83632;SDS011;73595;53.084;6.696;2024-02-26T05:04:37;10.35;;;6.05;;
83632;SDS011;73595;53.084;6.696;2024-02-26T05:07:07;7.97;;;5.38;;
83632;SDS011;73595;53.084;6.696;2024-02-26T05:10:15;8.00;;;5.32;;
83632;SDS011;73595;53.084;6.696;2024-02-26T05:12:42;8.23;;;5.28;;
83632;SDS011;73595;53.084;6.696;2024-02-26T05:15:13;13.55;;;5.35;;
83632;SDS011;73595;53.084;6.696;2024-02-26T05:17:43;9.13;;;5.43;;
83632;SDS011;73595;53.084;6.696;2024-02-26T05:20:09;12.25;;;5.20;;
83632;SDS011;73595;53.084;6.696;2024-02-26T05:22:38;8.23;;;5.03;;
83632;SDS011;73595;53.084;6.696;2024-02-26T05:25:07;6.22;;;4.70;;
83632;SDS011;73595;53.084;6.696;2024-02-26T05:27:35;6.68;;;4.28;;
83632;SDS011;73595;53.084;6.696;2024-02-26T05:30:05;7.85;;;4.55;;
83632;SDS011;73595;53.084;6.696;2024-02-26T05:32:33;7.05;;;4.35;;
83632;SDS011;73595;53.084;6.696;2024-02-26T05:34:58;6.90;;;4.30;;
83632;SDS011;73595;53.084;6.696;2024-02-26T05:37:30;5.72;;;4.10;;
83632;SDS011;73595;53.084;6.696;2024-02-26T05:39:56;7.43;;;3.88;;
83632;SDS011;73595;53.084;6.696;2024-02-26T05:42:25;6.32;;;3.90;;
83632;SDS011;73595;53.084;6.696;2024-02-26T05:44:57;7.47;;;4.00;;
83632;SDS011;73595;53.084;6.696;2024-02-26T05:47:24;3.88;;;3.40;;
83632;SDS011;73595;53.084;6.696;2024-02-26T05:49:53;4.22;;;3.30;;
83632;SDS011;73595;53.084;6.696;2024-02-26T05:52:20;5.70;;;3.60;;
83632;SDS011;73595;53.084;6.696;2024-02-26T05:54:50;5.18;;;3.83;;
83632;SDS011;73595;53.084;6.696;2024-02-26T05:57:43;5.18;;;3.58;;
83632;SDS011;73595;53.084;6.696;2024-02-26T06:00:08;5.47;;;3.42;;
83632;SDS011;73595;53.084;6.696;2024-02-26T06:02:34;6.03;;;3.40;;
83632;SDS011;73595;53.084;6.696;2024-02-26T06:05:24;6.32;;;3.58;;
83632;SDS011;73595;53.084;6.696;2024-02-26T06:07:55;6.38;;;3.42;;
83632;SDS011;73595;53.084;6.696;2024-02-26T06:10:26;7.00;;;3.35;;
83632;SDS011;73595;53.084;6.696;2024-02-26T06:12:52;6.00;;;3.92;;
83632;SDS011;73595;53.084;6.696;2024-02-26T06:15:18;4.50;;;3.40;;
83632;SDS011;73595;53.084;6.696;2024-02-26T06:17:43;4.90;;;3.78;;
83632;SDS011;73595;53.084;6.696;2024-02-26T06:20:09;7.15;;;3.80;;
83632;SDS011;73595;53.084;6.696;2024-02-26T06:22:38;5.55;;;3.60;;
83632;SDS011;73595;53.084;6.696;2024-02-26T06:25:06;6.75;;;4.00;;
83632;SDS011;73595;53.084;6.696;2024-02-26T06:27:32;5.47;;;3.88;;
83632;SDS011;73595;53.084;6.696;2024-02-26T06:30:00;6.93;;;3.90;;
83632;SDS011;73595;53.084;6.696;2024-02-26T06:32:37;6.70;;;4.03;;
83632;SDS011;73595;53.084;6.696;2024-02-26T06:35:09;8.70;;;4.00;;
83632;SDS011;73595;53.084;6.696;2024-02-26T06:38:01;4.00;;;3.50;;
83632;SDS011;73595;53.084;6.696;2024-02-26T06:40:29;5.95;;;4.35;;
83632;SDS011;73595;53.084;6.696;2024-02-26T06:43:14;7.40;;;4.18;;
83632;SDS011;73595;53.084;6.696;2024-02-26T06:45:41;5.28;;;4.10;;
83632;SDS011;73595;53.084;6.696;2024-02-26T06:48:07;5.93;;;4.10;;
83632;SDS011;73595;53.084;6.696;2024-02-26T06:50:49;5.85;;;4.10;;
83632;SDS011;73595;53.084;6.696;2024-02-26T06:53:39;5.32;;;3.83;;
83632;SDS011;73595;53.084;6.696;2024-02-26T06:56:11;6.45;;;4.22;;
83632;SDS011;73595;53.084;6.696;2024-02-26T06:59:01;8.20;;;4.90;;
83632;SDS011;73595;53.084;6.696;2024-02-26T07:01:53;5.28;;;4.47;;
83632;SDS011;73595;53.084;6.696;2024-02-26T07:04:22;5.72;;;4.15;;
83632;SDS011;73595;53.084;6.696;2024-02-26T07:06:49;6.95;;;4.07;;
83632;SDS011;73595;53.084;6.696;2024-02-26T07:09:15;9.05;;;4.70;;
83632;SDS011;73595;53.084;6.696;2024-02-26T07:11:42;4.60;;;4.10;;
83632;SDS011;73595;53.084;6.696;2024-02-26T07:14:12;5.55;;;4.55;;
83632;SDS011;73595;53.084;6.696;2024-02-26T07:16:41;6.57;;;4.18;;
83632;SDS011;73595;53.084;6.696;2024-02-26T07:19:08;7.20;;;4.70;;
83632;SDS011;73595;53.084;6.696;2024-02-26T07:21:45;6.35;;;4.55;;
83632;SDS011;73595;53.084;6.696;2024-02-26T07:24:12;4.95;;;4.15;;
83632;SDS011;73595;53.084;6.696;2024-02-26T07:26:38;6.35;;;4.78;;
83632;SDS011;73595;53.084;6.696;2024-02-26T07:29:05;7.22;;;4.38;;
83632;SDS011;73595;53.084;6.696;2024-02-26T07:31:41;7.35;;;4.28;;
83632;SDS011;73595;53.084;6.696;2024-02-26T07:34:32;6.32;;;4.50;;
83632;SDS011;73595;53.084;6.696;2024-02-26T07:37:07;4.75;;;4.25;;
83632;SDS011;73595;53.084;6.696;2024-02-26T07:39:54;5.10;;;4.15;;
83632;SDS011;73595;53.084;6.696;2024-02-26T07:42:30;6.07;;;4.35;;
83632;SDS011;73595;53.084;6.696;2024-02-26T07:44:55;6.03;;;4.55;;
83632;SDS011;73595;53.084;6.696;2024-02-26T07:47:25;4.65;;;4.10;;
83632;SDS011;73595;53.084;6.696;2024-02-26T07:50:15;8.07;;;4.50;;
83632;SDS011;73595;53.084;6.696;2024-02-26T07:52:50;6.15;;;4.10;;
83632;SDS011;73595;53.084;6.696;2024-02-26T07:55:37;5.10;;;4.30;;
83632;SDS011;73595;53.084;6.696;2024-02-26T07:58:04;5.30;;;4.75;;
83632;SDS011;73595;53.084;6.696;2024-02-26T08:00:31;5.03;;;4.05;;
83632;SDS011;73595;53.084;6.696;2024-02-26T08:03:20;5.63;;;4.57;;
83632;SDS011;73595;53.084;6.696;2024-02-26T08:05:48;8.02;;;4.68;;
83632;SDS011;73595;53.084;6.696;2024-02-26T08:08:15;4.55;;;3.95;;
83632;SDS011;73595;53.084;6.696;2024-02-26T08:10:41;6.55;;;4.40;;
83632;SDS011;73595;53.084;6.696;2024-02-26T08:13:08;6.88;;;3.90;;
83632;SDS011;73595;53.084;6.696;2024-02-26T08:15:37;5.20;;;4.40;;
83632;SDS011;73595;53.084;6.696;2024-02-26T08:18:08;8.20;;;4.20;;
83632;SDS011;73595;53.084;6.696;2024-02-26T08:20:45;8.20;;;4.05;;
83632;SDS011;73595;53.084;6.696;2024-02-26T08:23:15;8.73;;;4.20;;
83632;SDS011;73595;53.084;6.696;2024-02-26T08:25:41;5.72;;;4.32;;
83632;SDS011;73595;53.084;6.696;2024-02-26T08:28:07;5.18;;;3.92;;
83632;SDS011;73595;53.084;6.696;2024-02-26T08:30:38;11.93;;;4.38;;
83632;SDS011;73595;53.084;6.696;2024-02-26T08:33:28;9.55;;;4.65;;
83632;SDS011;73595;53.084;6.696;2024-02-26T08:36:03;6.05;;;3.97;;
83632;SDS011;73595;53.084;6.696;2024-02-26T08:38:37;6.50;;;4.35;;
83632;SDS011;73595;53.084;6.696;2024-02-26T08:41:43;5.25;;;3.63;;
83632;SDS011;73595;53.084;6.696;2024-02-26T08:44:52;8.02;;;4.82;;
83632;SDS011;73595;53.084;6.696;2024-02-26T08:50:56;6.50;;;4.27;;
83632;SDS011;73595;53.084;6.696;2024-02-26T08:53:49;6.00;;;4.15;;
83632;SDS011;73595;53.084;6.696;2024-02-26T08:57:03;5.67;;;4.00;;
83632;SDS011;73595;53.084;6.696;2024-02-26T08:59:54;5.25;;;4.10;;
83632;SDS011;73595;53.084;6.696;2024-02-26T09:03:04;8.63;;;4.25;;
83632;SDS011;73595;53.084;6.696;2024-02-26T09:13:54;6.13;;;4.28;;
83632;SDS011;73595;53.084;6.696;2024-02-26T09:17:34;6.55;;;4.43;;
83632;SDS011;73595;53.084;6.696;2024-02-26T09:20:23;4.88;;;3.75;;
83632;SDS011;73595;53.084;6.696;2024-02-26T09:23:51;6.18;;;4.25;;
83632;SDS011;73595;53.084;6.696;2024-02-26T09:27:16;6.60;;;4.20;;
83632;SDS011;73595;53.084;6.696;2024-02-26T09:37:35;5.00;;;3.80;;
83632;SDS011;73595;53.084;6.696;2024-02-26T09:40:49;6.53;;;3.97;;
83632;SDS011;73595;53.084;6.696;2024-02-26T09:44:00;7.13;;;4.30;;
83632;SDS011;73595;53.084;6.696;2024-02-26T09:47:30;4.93;;;3.80;;
83632;SDS011;73595;53.084;6.696;2024-02-26T09:50:42;5.28;;;4.30;;
83632;SDS011;73595;53.084;6.696;2024-02-26T09:53:25;6.97;;;4.25;;
83632;SDS011;73595;53.084;6.696;2024-02-26T09:56:18;5.82;;;4.03;;
83632;SDS011;73595;53.084;6.696;2024-02-26T09:59:53;5.68;;;4.25;;
83632;SDS011;73595;53.084;6.696;2024-02-26T10:03:58;4.88;;;3.25;;
83632;SDS011;73595;53.084;6.696;2024-02-26T10:07:22;7.75;;;4.10;;
83632;SDS011;73595;53.084;6.696;2024-02-26T10:10:57;4.68;;;3.28;;
83632;SDS011;73595;53.084;6.696;2024-02-26T10:21:31;4.68;;;3.55;;
83632;SDS011;73595;53.084;6.696;2024-02-26T10:25:04;5.00;;;3.45;;
83632;SDS011;73595;53.084;6.696;2024-02-26T10:28:35;4.07;;;3.22;;
83632;SDS011;73595;53.084;6.696;2024-02-26T10:31:47;6.45;;;3.58;;
83632;SDS011;73595;53.084;6.696;2024-02-26T10:34:59;4.15;;;3.20;;
83632;SDS011;73595;53.084;6.696;2024-02-26T10:38:14;7.15;;;3.42;;
83632;SDS011;73595;53.084;6.696;2024-02-26T10:41:03;4.25;;;3.25;;
83632;SDS011;73595;53.084;6.696;2024-02-26T10:47:46;5.13;;;2.80;;
83632;SDS011;73595;53.084;6.696;2024-02-26T10:51:34;3.25;;;2.80;;
83632;SDS011;73595;53.084;6.696;2024-02-26T10:55:19;6.15;;;2.80;;
83632;SDS011;73595;53.084;6.696;2024-02-26T10:58:45;3.88;;;2.80;;
83632;SDS011;73595;53.084;6.696;2024-02-26T11:01:19;4.78;;;3.22;;
83632;SDS011;73595;53.084;6.696;2024-02-26T11:04:11;4.95;;;3.00;;
83632;SDS011;73595;53.084;6.696;2024-02-26T11:06:53;4.95;;;2.90;;
83632;SDS011;73595;53.084;6.696;2024-02-26T11:09:22;4.18;;;3.00;;
83632;SDS011;73595;53.084;6.696;2024-02-26T11:11:50;4.82;;;2.72;;
83632;SDS011;73595;53.084;6.696;2024-02-26T11:14:41;4.32;;;2.50;;
83632;SDS011;73595;53.084;6.696;2024-02-26T11:17:16;3.33;;;2.42;;
83632;SDS011;73595;53.084;6.696;2024-02-26T11:20:06;5.20;;;2.50;;
83632;SDS011;73595;53.084;6.696;2024-02-26T11:22:57;3.92;;;2.17;;
83632;SDS011;73595;53.084;6.696;2024-02-26T11:25:24;3.28;;;2.28;;
83632;SDS011;73595;53.084;6.696;2024-02-26T11:27:56;3.95;;;2.35;;
83632;SDS011;73595;53.084;6.696;2024-02-26T11:30:26;3.85;;;2.20;;
83632;SDS011;73595;53.084;6.696;2024-02-26T11:33:03;4.07;;;2.55;;
83632;SDS011;73595;53.084;6.696;2024-02-26T11:35:35;3.03;;;2.22;;
83632;SDS011;73595;53.084;6.696;2024-02-26T11:38:29;4.75;;;2.33;;
83632;SDS011;73595;53.084;6.696;2024-02-26T11:41:04;3.70;;;2.60;;
83632;SDS011;73595;53.084;6.696;2024-02-26T11:46:33;3.58;;;2.45;;
83632;SDS011;73595;53.084;6.696;2024-02-26T11:49:31;2.80;;;2.47;;
83632;SDS011;73595;53.084;6.696;2024-02-26T11:51:59;2.80;;;2.30;;
83632;SDS011;73595;53.084;6.696;2024-02-26T11:54:51;6.80;;;2.95;;
83632;SDS011;73595;53.084;6.696;2024-02-26T11:57:45;5.28;;;2.67;;
83632;SDS011;73595;53.084;6.696;2024-02-26T12:00:15;3.80;;;2.40;;
83632;SDS011;73595;53.084;6.696;2024-02-26T12:03:07;4.25;;;2.80;;
83632;SDS011;73595;53.084;6.696;2024-02-26T12:05:46;4.13;;;2.88;;
83632;SDS011;73595;53.084;6.696;2024-02-26T12:08:14;4.10;;;3.08;;
83632;SDS011;73595;53.084;6.696;2024-02-26T12:10:42;4.47;;;2.88;;
83632;SDS011;73595;53.084;6.696;2024-02-26T12:13:29;5.13;;;3.40;;
83632;SDS011;73595;53.084;6.696;2024-02-26T12:15:59;6.38;;;3.30;;
83632;SDS011;73595;53.084;6.696;2024-02-26T12:18:26;6.10;;;3.72;;
83632;SDS011;73595;53.084;6.696;2024-02-26T12:21:04;4.93;;;3.63;;
83632;SDS011;73595;53.084;6.696;2024-02-26T12:24:23;6.47;;;4.40;;
83632;SDS011;73595;53.084;6.696;2024-02-26T12:27:25;5.43;;;3.83;;
83632;SDS011;73595;53.084;6.696;2024-02-26T12:30:47;7.80;;;4.40;;
83632;SDS011;73595;53.084;6.696;2024-02-26T12:34:02;5.85;;;4.28;;
83632;SDS011;73595;53.084;6.696;2024-02-26T12:36:35;7.18;;;5.50;;
83632;SDS011;73595;53.084;6.696;2024-02-26T12:39:46;9.43;;;5.60;;
83632;SDS011;73595;53.084;6.696;2024-02-26T12:42:32;9.95;;;5.90;;
83632;SDS011;73595;53.084;6.696;2024-02-26T12:45:17;7.03;;;5.07;;
83632;SDS011;73595;53.084;6.696;2024-02-26T12:48:06;6.90;;;4.93;;
83632;SDS011;73595;53.084;6.696;2024-02-26T12:50:52;10.30;;;4.90;;
83632;SDS011;73595;53.084;6.696;2024-02-26T12:53:19;7.35;;;5.60;;
83632;SDS011;73595;53.084;6.696;2024-02-26T12:55:45;10.93;;;6.50;;
83632;SDS011;73595;53.084;6.696;2024-02-26T12:58:15;8.77;;;6.03;;
83632;SDS011;73595;53.084;6.696;2024-02-26T13:00:48;11.48;;;5.82;;
83632;SDS011;73595;53.084;6.696;2024-02-26T13:03:45;9.63;;;6.55;;
83632;SDS011;73595;53.084;6.696;2024-02-26T13:06:23;11.20;;;6.28;;
83632;SDS011;73595;53.084;6.696;2024-02-26T13:08:58;10.80;;;6.75;;
83632;SDS011;73595;53.084;6.696;2024-02-26T13:11:28;8.40;;;6.32;;
83632;SDS011;73595;53.084;6.696;2024-02-26T13:14:02;9.45;;;6.70;;
83632;SDS011;73595;53.084;6.696;2024-02-26T13:16:57;7.50;;;5.07;;
83632;SDS011;73595;53.084;6.696;2024-02-26T13:19:24;8.65;;;5.68;;
83632;SDS011;73595;53.084;6.696;2024-02-26T13:21:52;7.43;;;5.55;;
83632;SDS011;73595;53.084;6.696;2024-02-26T13:24:22;6.97;;;5.35;;
83632;SDS011;73595;53.084;6.696;2024-02-26T13:26:59;8.65;;;6.55;;
83632;SDS011;73595;53.084;6.696;2024-02-26T13:29:40;7.50;;;5.88;;
83632;SDS011;73595;53.084;6.696;2024-02-26T13:32:05;9.75;;;6.18;;
83632;SDS011;73595;53.084;6.696;2024-02-26T13:34:43;11.75;;;6.55;;
83632;SDS011;73595;53.084;6.696;2024-02-26T13:41:20;11.23;;;5.82;;
83632;SDS011;73595;53.084;6.696;2024-02-26T13:43:50;9.55;;;5.95;;
83632;SDS011;73595;53.084;6.696;2024-02-26T13:46:18;10.45;;;6.47;;
83632;SDS011;73595;53.084;6.696;2024-02-26T13:48:44;11.07;;;6.30;;
83632;SDS011;73595;53.084;6.696;2024-02-26T13:51:12;11.38;;;7.32;;
83632;SDS011;73595;53.084;6.696;2024-02-26T13:53:39;12.57;;;7.93;;
83632;SDS011;73595;53.084;6.696;2024-02-26T13:56:04;15.73;;;7.80;;
83632;SDS011;73595;53.084;6.696;2024-02-26T13:58:30;13.27;;;7.82;;
83632;SDS011;73595;53.084;6.696;2024-02-26T14:00:57;11.10;;;7.35;;
83632;SDS011;73595;53.084;6.696;2024-02-26T14:03:24;14.10;;;7.85;;
83632;SDS011;73595;53.084;6.696;2024-02-26T14:05:50;12.30;;;8.30;;
83632;SDS011;73595;53.084;6.696;2024-02-26T14:08:15;13.95;;;9.52;;
83632;SDS011;73595;53.084;6.696;2024-02-26T14:10:40;13.98;;;9.27;;
83632;SDS011;73595;53.084;6.696;2024-02-26T14:13:06;14.40;;;8.95;;
83632;SDS011;73595;53.084;6.696;2024-02-26T14:15:33;13.68;;;8.43;;
83632;SDS011;73595;53.084;6.696;2024-02-26T14:18:00;12.73;;;8.52;;
83632;SDS011;73595;53.084;6.696;2024-02-26T14:20:27;10.60;;;7.82;;
83632;SDS011;73595;53.084;6.696;2024-02-26T14:22:53;12.40;;;7.82;;
83632;SDS011;73595;53.084;6.696;2024-02-26T14:25:19;13.63;;;7.88;;
83632;SDS011;73595;53.084;6.696;2024-02-26T14:27:45;12.88;;;8.25;;
83632;SDS011;73595;53.084;6.696;2024-02-26T14:30:11;12.18;;;8.02;;
83632;SDS011;73595;53.084;6.696;2024-02-26T14:32:37;18.60;;;8.98;;
83632;SDS011;73595;53.084;6.696;2024-02-26T14:35:04;11.98;;;7.53;;
83632;SDS011;73595;53.084;6.696;2024-02-26T14:37:34;14.60;;;8.00;;
83632;SDS011;73595;53.084;6.696;2024-02-26T14:39:59;11.70;;;7.63;;
83632;SDS011;73595;53.084;6.696;2024-02-26T14:42:25;12.43;;;7.80;;
83632;SDS011;73595;53.084;6.696;2024-02-26T14:44:52;11.18;;;6.82;;
83632;SDS011;73595;53.084;6.696;2024-02-26T14:47:18;12.90;;;7.68;;
83632;SDS011;73595;53.084;6.696;2024-02-26T14:49:43;11.88;;;7.47;;
83632;SDS011;73595;53.084;6.696;2024-02-26T14:52:10;13.52;;;7.55;;
83632;SDS011;73595;53.084;6.696;2024-02-26T14:54:39;13.27;;;7.63;;
83632;SDS011;73595;53.084;6.696;2024-02-26T14:57:04;11.18;;;7.57;;
83632;SDS011;73595;53.084;6.696;2024-02-26T14:59:31;15.50;;;8.55;;
83632;SDS011;73595;53.084;6.696;2024-02-26T15:01:57;13.50;;;8.65;;
83632;SDS011;73595;53.084;6.696;2024-02-26T15:04:24;13.48;;;8.15;;
83632;SDS011;73595;53.084;6.696;2024-02-26T15:06:53;11.52;;;7.47;;
83632;SDS011;73595;53.084;6.696;2024-02-26T15:09:21;12.15;;;7.63;;
83632;SDS011;73595;53.084;6.696;2024-02-26T15:11:50;9.85;;;6.72;;
83632;SDS011;73595;53.084;6.696;2024-02-26T15:14:44;14.63;;;6.53;;
83632;SDS011;73595;53.084;6.696;2024-02-26T15:17:11;10.00;;;6.10;;
83632;SDS011;73595;53.084;6.696;2024-02-26T15:19:46;10.50;;;7.00;;
83632;SDS011;73595;53.084;6.696;2024-02-26T15:22:11;9.98;;;6.50;;
83632;SDS011;73595;53.084;6.696;2024-02-26T15:24:37;12.85;;;6.35;;
83632;SDS011;73595;53.084;6.696;2024-02-26T15:32:10;10.55;;;7.00;;
83632;SDS011;73595;53.084;6.696;2024-02-26T15:34:39;10.63;;;6.10;;
83632;SDS011;73595;53.084;6.696;2024-02-26T15:37:04;13.13;;;6.68;;
83632;SDS011;73595;53.084;6.696;2024-02-26T15:39:31;10.05;;;6.78;;
83632;SDS011;73595;53.084;6.696;2024-02-26T15:42:06;10.15;;;6.75;;
83632;SDS011;73595;53.084;6.696;2024-02-26T15:44:32;10.20;;;6.70;;
83632;SDS011;73595;53.084;6.696;2024-02-26T15:47:11;11.40;;;7.25;;
83632;SDS011;73595;53.084;6.696;2024-02-26T15:49:37;11.48;;;7.32;;
83632;SDS011;73595;53.084;6.696;2024-02-26T15:52:04;11.30;;;6.88;;
83632;SDS011;73595;53.084;6.696;2024-02-26T15:54:38;13.05;;;7.03;;
83632;SDS011;73595;53.084;6.696;2024-02-26T15:57:13;10.57;;;7.40;;
83632;SDS011;73595;53.084;6.696;2024-02-26T15:59:45;10.45;;;6.28;;
83632;SDS011;73595;53.084;6.696;2024-02-26T16:02:16;9.70;;;7.00;;
83632;SDS011;73595;53.084;6.696;2024-02-26T16:04:41;9.88;;;7.07;;
83632;SDS011;73595;53.084;6.696;2024-02-26T16:07:08;11.60;;;7.78;;
83632;SDS011;73595;53.084;6.696;2024-02-26T16:09:41;12.02;;;8.02;;
83632;SDS011;73595;53.084;6.696;2024-02-26T16:12:09;13.35;;;8.38;;